Col Jabara, KS

16:35 CDT le 21 octobre 2014 (GMT -0500)
Col Jabara | Change Station
CLOSE
Current Station
Aéroport
Location: Wichita Jabara,
Altitude: 1421 ft
Stations météo à proximité

Alt. 1421 ft 37.75 °N, 97.22 °W | Updated 41 minutes ago

Clear
Ciel dégagé
79 ° F
Paraît 79 ° F
N
12
Vent Variable Vent de Sud

Aujourd'hui
Haut(e) -- | Bas -- ° F
--% Risque de précip.
Hier
Haut(e) -- | Bas -- ° F
Precip. -- pouce
7:43 AM 6:43 PM
Lune descendante, 4% visible
Pression 30.00 pouce
Visibilité 10.0 Miles terrestres
Nuages Ciel dégagé
Point de rosée 57 ° F
Humidité 47%
Précipitations 0.00 pouce
Profondeur de la couche neigeuse Non disponible.
UV 3 sur 12
Pollen 3.60 sur 12
Qualité de l'air Non disponible.
Flu Activity No Activity
METAR KAAO 212054Z AUTO 17010KT 10SM CLR 26/14 A3002 RMK AO2 SLP159 T02610139 56022

More Conditions Fewer Conditions

Pression 30.00 pouce
Visibilité 10.0 Miles terrestres
Nuages Ciel dégagé
Point de rosée 57 ° F
Humidité 47%
Précipitations 0.00 pouce
Profondeur de la couche neigeuse Non disponible.
UV 3 sur 12
Pollen 3.60 sur 12
Qualité de l'air Non disponible.
Flu Activity No Activity
METAR KAAO 212054Z AUTO 17010KT 10SM CLR 26/14 A3002 RMK AO2 SLP159 T02610139 56022

More Conditions Fewer Conditions

10-Day Weather Forecast

Almanac

Astronomie

Oct. 21, 2014 Lever Coucher
Temps réel 07:43 CDT 18:43 CDT
Crépuscule civil 07:16 CDT 19:09 CDT
Crépuscule nautique 06:45 CDT 19:40 CDT
Crépuscule astronomique 06:15 CDT 20:10 CDT
Lune 05:30 CDT 17:36 CDT
Durée de lumière visible 11h 53m
Longueur du jour
11h 00m
Tomorrow will be 2m 16s shorter.
Lune descendante, 4% of the Moon is Illuminated
Aujourd'hui
Lune descendante
Oct 23
Nouveau
Oct 30
Premier quartier
Nov 6
Pleine lune
Nov 14
Dernier quartier

Extrêmes aujourd'hui

State Highs State Lows

Community

WunderPhotos

Upload Photos

1,763,779 Photos téléchargées !

Nearby

Épaisseur de neige

Station Depth Altitude
Pas de nouvelles chutes de neige

Activité sismique

Ville Distance Mag. Time & Date
Mooreland, Oklahoma 131 Miles terrestres 2.7 11:18 CDT
2014-10-21
Cherokee, Oklahoma 84 Miles terrestres 2.5 08:27 CDT
2014-10-21
Anthony, Kansas 60 Miles terrestres 3.0 06:55 CDT
2014-10-21
Stillwater, Oklahoma 111 Miles terrestres 2.5 23:26 CDT
2014-10-20
Minimum magnitude displayed is 2.5.

Températures des eaux côtières

Lieu Température
Aucun rapport de station

Stations météo à proximité